Time;durP1;ratioP1;P1;durP2;ratioP2;P2;SDS_P1;SDS_P2;PMS_P1;PMS_P2;Temp;Humidity;BMP_temperature;BMP_pressure;BME280_temperature;BME280_humidity;BME280_pressure;Samples;Min_cycle;Max_cycle;Signal;HPM_P1;HPM_P2
2023/04/14 00:01:29;;;;;;;;;;;;;;;14.06;44.34;93720.88;4196738;28;20360;-59
2023/04/14 00:03:31;;;;;;;;;;;;;;;13.68;45.25;93722.31;4195175;28;20015;-59
2023/04/14 00:05:33;;;;;;;;;;;;;;;13.69;45.35;93736.28;4196212;28;20115;-59
2023/04/14 00:07:34;;;;;;;;;;;;;;;13.75;45.42;93722.31;4192788;28;20542;-59
2023/04/14 00:09:36;;;;;;;;;;;;;;;13.64;45.17;93723.72;4196347;28;20319;-59
2023/04/14 00:11:38;;;;;;;;;;;;;;;13.70;45.42;93730.00;4196033;28;20372;-60
2023/04/14 00:13:39;;;;;;;;;;;;;;;13.75;45.74;93718.88;4193395;28;19933;-57
2023/04/14 00:15:41;;;;;;;;;;;;;;;13.86;45.60;93713.81;4186393;28;19924;-59
2023/04/14 00:17:42;;;;;;;;;;;;;;;13.93;45.21;93711.97;4194214;28;19950;-60
2023/04/14 00:19:45;;;;;;;;;;;;;;;13.82;45.67;93709.97;4192283;28;19978;-58
2023/04/14 00:21:47;;;;;;;;;;;;;;;13.87;45.48;93712.81;4190208;28;19928;-58
2023/04/14 00:23:48;;;;;;;;;;;;;;;13.93;45.67;93711.16;4191229;28;20057;-59
2023/04/14 00:25:50;;;;;;;;;;;;;;;13.77;46.00;93708.97;4193001;28;19924;-58
2023/04/14 00:27:51;;;;;;;;;;;;;;;13.71;45.95;93721.09;4195660;28;20028;-58
2023/04/14 00:29:53;;;;;;;;;;;;;;;13.74;45.74;93712.78;4192496;28;20004;-58
2023/04/14 00:31:55;;;;;;;;;;;;;;;13.69;45.77;93705.50;4193783;28;19948;-60
2023/04/14 00:33:56;;;;;;;;;;;;;;;13.72;46.14;93706.91;4191303;28;19982;-60
2023/04/14 00:35:58;;;;;;;;;;;;;;;13.72;46.05;93720.06;4192886;28;19952;-60
2023/04/14 00:37:59;;;;;;;;;;;;;;;13.70;46.28;93708.94;4193589;28;19998;-59
2023/04/14 00:40:01;;;;;;;;;;;;;;;13.78;45.89;93705.31;4193248;28;20098;-58
2023/04/14 00:42:03;;;;;;;;;;;;;;;13.88;45.52;93703.88;4195889;28;19931;-57
2023/04/14 00:44:04;;;;;;;;;;;;;;;13.89;45.74;93691.53;4194632;28;19924;-56
2023/04/14 00:46:06;;;;;;;;;;;;;;;13.71;46.05;93702.69;4195028;28;19924;-57
2023/04/14 00:48:08;;;;;;;;;;;;;;;13.71;45.78;93703.47;4183169;28;20466;-58
2023/04/14 00:50:09;;;;;;;;;;;;;;;13.65;45.86;93699.03;4188678;28;20302;-55
2023/04/14 00:52:11;;;;;;;;;;;;;;;13.57;46.42;93707.09;4195168;28;19925;-57
2023/04/14 00:54:13;;;;;;;;;;;;;;;13.42;46.76;93698.59;4194747;28;19925;-57
2023/04/14 00:56:15;;;;;;;;;;;;;;;13.45;46.62;93701.66;4195134;28;19929;-56
2023/04/14 00:58:16;;;;;;;;;;;;;;;13.52;46.54;93691.94;4193882;28;19930;-59
2023/04/14 01:00:18;;;;;;;;;;;;;;;13.61;46.84;93689.09;4195141;28;19948;-59
2023/04/14 01:02:20;;;;;;;;;;;;;;;13.65;46.12;93690.31;4193733;28;19967;-64
2023/04/14 01:04:21;;;;;;;;;;;;;;;13.61;46.47;93692.53;4194393;28;20226;-58
2023/04/14 01:06:23;;;;;;;;;;;;;;;13.48;46.92;93698.59;4194721;28;20023;-57
2023/04/14 01:08:25;;;;;;;;;;;;;;;13.34;47.02;93696.19;4194159;28;20013;-56
2023/04/14 01:10:28;;;;;;;;;;;;;;;13.39;47.17;93699.00;4195250;28;19986;-57
2023/04/14 01:12:44;;;;;;;;;;;;;;;13.37;47.17;93698.41;4194856;28;20261;-58
2023/04/14 01:15:03;;;;;;;;;;;;;;;13.43;47.00;93689.72;4192086;28;19932;-58
2023/04/14 01:17:07;;;;;;;;;;;;;;;13.39;47.11;93693.75;4184259;28;20296;-58
2023/04/14 01:19:23;;;;;;;;;;;;;;;13.45;47.30;93699.00;4192999;28;19932;-58
2023/04/14 01:21:27;;;;;;;;;;;;;;;13.55;46.77;93697.81;4193873;28;19932;-58
2023/04/14 01:23:38;;;;;;;;;;;;;;;13.52;46.99;93699.81;4192879;28;19924;-58
2023/04/14 01:25:58;;;;;;;;;;;;;;;13.41;47.04;93687.28;4179902;28;19928;-58
2023/04/14 01:28:18;;;;;;;;;;;;;;;13.27;47.40;93677.69;4194252;28;20441;-58
2023/04/14 01:30:22;;;;;;;;;;;;;;;13.26;47.48;93686.63;4180354;28;19925;-59
2023/04/14 01:32:23;;;;;;;;;;;;;;;13.11;47.55;93679.72;4191960;28;19935;-58
2023/04/14 01:34:30;;;;;;;;;;;;;;;13.11;47.85;93686.78;4192688;28;20379;-59
2023/04/14 01:36:33;;;;;;;;;;;;;;;13.06;47.95;93686.59;4193321;28;19929;-58
2023/04/14 01:38:35;;;;;;;;;;;;;;;13.03;48.04;93679.88;4186104;28;19924;-57
2023/04/14 01:40:37;;;;;;;;;;;;;;;13.09;47.98;93689.59;4192579;28;19936;-58
2023/04/14 01:42:39;;;;;;;;;;;;;;;13.16;48.09;93679.09;4191078;28;19924;-57
2023/04/14 01:44:40;;;;;;;;;;;;;;;13.08;48.26;93681.94;4190669;28;20648;-61
2023/04/14 01:46:42;;;;;;;;;;;;;;;13.14;48.01;93693.47;4181173;28;19928;-58
2023/04/14 01:48:44;;;;;;;;;;;;;;;13.11;48.21;93677.06;4192149;28;20048;-58
2023/04/14 01:50:45;;;;;;;;;;;;;;;12.86;48.93;93668.94;4194029;28;19924;-59
2023/04/14 01:52:47;;;;;;;;;;;;;;;12.90;48.85;93674.59;4191438;28;20018;-58
2023/04/14 01:54:50;;;;;;;;;;;;;;;12.86;48.93;93681.25;4184665;28;19982;-56
2023/04/14 01:56:51;;;;;;;;;;;;;;;12.97;48.61;93680.72;4191659;28;20009;-57
2023/04/14 01:58:53;;;;;;;;;;;;;;;13.09;48.34;93679.09;4190562;28;19982;-58
2023/04/14 02:00:54;;;;;;;;;;;;;;;13.09;48.16;93676.47;4191702;28;19924;-59
2023/04/14 02:02:56;;;;;;;;;;;;;;;13.18;48.13;93689.44;4191784;28;19925;-58
2023/04/14 02:04:58;;;;;;;;;;;;;;;13.30;47.75;93682.63;4190549;28;19986;-58
2023/04/14 02:06:59;;;;;;;;;;;;;;;13.31;48.00;93682.41;4191484;28;19967;-58
2023/04/14 02:09:01;;;;;;;;;;;;;;;13.25;48.25;93691.06;4191173;28;20023;-59
2023/04/14 02:11:03;;;;;;;;;;;;;;;13.28;48.07;93681.97;4191145;28;20453;-58
2023/04/14 02:13:05;;;;;;;;;;;;;;;13.22;48.09;93682.75;4192485;28;20300;-57
2023/04/14 02:15:07;;;;;;;;;;;;;;;13.02;48.68;93693.25;4192275;28;19928;-57
2023/04/14 02:17:10;;;;;;;;;;;;;;;13.00;48.63;93669.78;4192581;28;19928;-58
2023/04/14 02:19:11;;;;;;;;;;;;;;;12.53;49.93;93684.59;4193509;28;19929;-57
2023/04/14 02:21:12;;;;;;;;;;;;;;;12.40;50.43;93695.84;4193554;28;19998;-59
2023/04/14 02:23:14;;;;;;;;;;;;;;;12.53;49.83;93694.28;4193467;28;19932;-59
2023/04/14 02:25:16;;;;;;;;;;;;;;;12.70;49.84;93691.13;4192798;28;20339;-58
2023/04/14 02:27:18;;;;;;;;;;;;;;;12.69;49.69;93686.06;4191609;28;20489;-58
2023/04/14 02:29:20;;;;;;;;;;;;;;;12.65;49.55;93693.53;4192735;28;21812;-57
2023/04/14 02:31:22;;;;;;;;;;;;;;;12.70;49.76;93690.31;4193051;28;20404;-58
2023/04/14 02:33:26;;;;;;;;;;;;;;;12.52;50.09;93676.88;4189226;28;20058;-60
2023/04/14 02:35:28;;;;;;;;;;;;;;;12.43;50.34;93684.13;4189825;28;19925;-61
2023/04/14 02:37:37;;;;;;;;;;;;;;;12.48;50.38;93692.25;4189512;28;19932;-60
2023/04/14 02:39:50;;;;;;;;;;;;;;;12.59;49.95;93675.91;4191230;28;19929;-58
2023/04/14 02:41:52;;;;;;;;;;;;;;;12.70;49.92;93693.75;4191949;28;19943;-58
2023/04/14 02:44:03;;;;;;;;;;;;;;;12.84;49.83;93701.66;4191340;28;20050;-58
2023/04/14 02:46:05;;;;;;;;;;;;;;;12.64;50.02;93681.38;4191714;28;19925;-57
2023/04/14 02:48:08;;;;;;;;;;;;;;;12.58;50.32;93686.63;4192270;28;19924;-58
2023/04/14 02:50:10;;;;;;;;;;;;;;;12.60;50.30;93685.41;4191360;28;20010;-56
2023/04/14 02:52:13;;;;;;;;;;;;;;;12.70;50.21;93674.53;4193107;28;19972;-58
2023/04/14 02:54:15;;;;;;;;;;;;;;;12.74;50.14;93672.34;4189081;28;19935;-58
2023/04/14 02:56:16;;;;;;;;;;;;;;;12.73;49.74;93663.63;4191328;28;19931;-58
2023/04/14 02:58:18;;;;;;;;;;;;;;;12.75;49.78;93656.34;4191340;28;19967;-56
2023/04/14 03:00:20;;;;;;;;;;;;;;;12.84;50.06;93654.34;4192440;28;20015;-58
2023/04/14 03:02:21;;;;;;;;;;;;;;;12.94;49.85;93660.06;4190577;28;20620;-58
2023/04/14 03:04:23;;;;;;;;;;;;;;;12.81;50.03;93660.84;4192475;28;19944;-58
2023/04/14 03:06:25;;;;;;;;;;;;;;;12.72;50.13;93656.78;4190893;28;20021;-58
2023/04/14 03:08:26;;;;;;;;;;;;;;;12.74;50.47;93667.91;4192778;28;19943;-58
2023/04/14 03:10:28;;;;;;;;;;;;;;;12.84;50.21;93660.44;4192444;28;20357;-58
2023/04/14 03:12:29;;;;;;;;;;;;;;;12.85;50.09;93656.00;4192526;28;20301;-58
2023/04/14 03:14:31;;;;;;;;;;;;;;;12.82;50.50;93656.38;4190523;28;19932;-57
2023/04/14 03:16:33;;;;;;;;;;;;;;;12.87;50.10;93659.25;4192086;28;20016;-58
2023/04/14 03:18:34;;;;;;;;;;;;;;;12.93;49.94;93663.72;4191343;28;19928;-58
2023/04/14 03:20:36;;;;;;;;;;;;;;;13.02;49.71;93662.50;4191236;28;20578;-58
2023/04/14 03:22:39;;;;;;;;;;;;;;;13.08;49.67;93666.16;4192860;28;19928;-59
2023/04/14 03:24:41;;;;;;;;;;;;;;;13.13;49.37;93662.94;4189350;28;19937;-58
2023/04/14 03:26:43;;;;;;;;;;;;;;;13.05;49.79;93662.09;4191139;28;19998;-59
2023/04/14 03:28:46;;;;;;;;;;;;;;;13.03;49.68;93664.09;4192640;28;20019;-60
2023/04/14 03:30:48;;;;;;;;;;;;;;;13.08;49.66;93640.69;4192059;28;20321;-59
2023/04/14 03:32:50;;;;;;;;;;;;;;;13.08;49.61;93638.03;4189951;28;19951;-58
2023/04/14 03:34:53;;;;;;;;;;;;;;;13.04;49.77;93622.88;4191037;28;20032;-59
2023/04/14 03:36:54;;;;;;;;;;;;;;;12.98;49.67;93621.03;4189322;28;19928;-57
2023/04/14 03:38:58;;;;;;;;;;;;;;;12.94;49.85;93618.00;4188893;28;20412;-60
2023/04/14 03:41:03;;;;;;;;;;;;;;;12.88;50.19;93614.38;4190498;28;19946;-58
2023/04/14 03:43:06;;;;;;;;;;;;;;;12.88;50.62;93603.84;4189672;28;19925;-58
2023/04/14 03:45:08;;;;;;;;;;;;;;;12.90;50.23;93578.16;4190404;28;20047;-58
2023/04/14 03:47:11;;;;;;;;;;;;;;;12.62;50.87;93588.00;4189677;28;19928;-58
2023/04/14 03:49:15;;;;;;;;;;;;;;;12.54;51.16;93588.19;4191976;28;19928;-55
2023/04/14 03:51:17;;;;;;;;;;;;;;;12.57;51.14;93593.06;4191058;28;19929;-56
2023/04/14 03:53:20;;;;;;;;;;;;;;;12.43;51.40;93589.56;4190371;28;20401;-57
2023/04/14 03:55:21;;;;;;;;;;;;;;;12.36;51.51;93586.94;4192135;28;19929;-58
2023/04/14 03:57:23;;;;;;;;;;;;;;;12.10;52.12;93590.25;4192135;28;19924;-60
2023/04/14 03:59:25;;;;;;;;;;;;;;;11.82;52.99;93595.56;4191243;28;19975;-58
2023/04/14 04:01:27;;;;;;;;;;;;;;;11.95;52.74;93605.34;4189933;28;19935;-58
2023/04/14 04:03:28;;;;;;;;;;;;;;;12.00;52.64;93601.13;4191083;28;20032;-58
2023/04/14 04:05:30;;;;;;;;;;;;;;;12.03;52.55;93605.19;4192600;28;20013;-58
2023/04/14 04:07:32;;;;;;;;;;;;;;;12.13;52.53;93604.81;4192371;28;19948;-59
2023/04/14 04:09:34;;;;;;;;;;;;;;;12.24;52.45;93597.19;4190966;28;19977;-59
2023/04/14 04:11:35;;;;;;;;;;;;;;;12.35;51.93;93595.03;4191320;28;19932;-59
2023/04/14 04:13:36;;;;;;;;;;;;;;;12.24;52.29;93596.41;4190651;28;20295;-58
2023/04/14 04:15:38;;;;;;;;;;;;;;;12.18;52.53;93592.72;4173115;28;19932;-59
2023/04/14 04:17:43;;;;;;;;;;;;;;;12.11;52.34;93591.91;4191611;28;19925;-59
2023/04/14 04:19:45;;;;;;;;;;;;;;;12.08;52.95;93590.44;4192902;28;19973;-59
2023/04/14 04:21:51;;;;;;;;;;;;;;;12.14;52.94;93596.75;4191176;28;19932;-56
2023/04/14 04:23:53;;;;;;;;;;;;;;;12.22;52.77;93598.41;4189874;28;20081;-60
2023/04/14 04:25:55;;;;;;;;;;;;;;;12.32;52.65;93605.91;4180822;28;20015;-59
2023/04/14 04:27:56;;;;;;;;;;;;;;;12.46;52.05;93612.84;4193994;28;19924;-58
2023/04/14 04:29:58;;;;;;;;;;;;;;;12.57;51.52;93612.25;4193271;28;20001;-60
2023/04/14 04:32:00;;;;;;;;;;;;;;;12.65;51.46;93614.72;4192793;28;19928;-59
2023/04/14 04:34:04;;;;;;;;;;;;;;;12.66;51.52;93621.56;4195654;28;19971;-59
2023/04/14 04:36:06;;;;;;;;;;;;;;;12.59;51.60;93623.38;4195870;28;20399;-58
2023/04/14 04:38:10;;;;;;;;;;;;;;;12.49;51.85;93636.88;4191145;28;19924;-61
2023/04/14 04:40:12;;;;;;;;;;;;;;;12.45;51.80;93642.72;4194554;28;19974;-59
2023/04/14 04:42:13;;;;;;;;;;;;;;;12.43;51.44;93648.19;4194897;28;19930;-59
2023/04/14 04:44:15;;;;;;;;;;;;;;;12.40;51.61;93643.31;4194012;28;20708;-57
2023/04/14 04:46:19;;;;;;;;;;;;;;;12.51;51.55;93644.56;4195475;28;19974;-57
2023/04/14 04:48:21;;;;;;;;;;;;;;;12.56;51.22;93633.47;4196716;28;19940;-57
2023/04/14 04:50:23;;;;;;;;;;;;;;;12.59;51.32;93628.63;4196621;28;19966;-62
2023/04/14 04:52:24;;;;;;;;;;;;;;;12.44;51.30;93606.97;4198261;28;19936;-57
2023/04/14 04:54:26;;;;;;;;;;;;;;;12.42;51.74;93606.34;4195956;28;19929;-58
2023/04/14 04:56:28;;;;;;;;;;;;;;;12.57;51.69;93614.06;4195591;28;19925;-58
2023/04/14 04:58:29;;;;;;;;;;;;;;;12.67;51.35;93615.31;4196216;28;19964;-58
2023/04/14 05:00:31;;;;;;;;;;;;;;;12.80;51.13;93608.47;4196027;28;20293;-58
2023/04/14 05:02:32;;;;;;;;;;;;;;;12.95;51.19;93603.03;4193713;28;20365;-58
2023/04/14 05:04:34;;;;;;;;;;;;;;;13.10;50.77;93595.78;4198568;28;19964;-61
2023/04/14 05:06:36;;;;;;;;;;;;;;;13.17;49.68;93596.59;4198090;28;19932;-58
2023/04/14 05:08:38;;;;;;;;;;;;;;;13.26;49.73;93594.56;4197621;28;19928;-60
2023/04/14 05:10:39;;;;;;;;;;;;;;;13.29;50.30;93588.91;4194791;28;19924;-59
2023/04/14 05:12:41;;;;;;;;;;;;;;;13.35;50.35;93595.19;4192643;28;19951;-59
2023/04/14 05:14:42;;;;;;;;;;;;;;;13.38;49.29;93603.50;4193757;28;19936;-57
2023/04/14 05:16:44;;;;;;;;;;;;;;;13.27;50.26;93606.69;4194928;28;19925;-58
2023/04/14 05:18:45;;;;;;;;;;;;;;;13.27;50.40;93611.94;4194453;28;19931;-59
2023/04/14 05:20:47;;;;;;;;;;;;;;;13.28;50.60;93600.44;4192590;28;20453;-59
2023/04/14 05:22:48;;;;;;;;;;;;;;;13.38;49.81;93595.63;4195364;28;20218;-56
2023/04/14 05:24:50;;;;;;;;;;;;;;;13.46;49.61;93578.78;4195014;28;20368;-59
2023/04/14 05:26:51;;;;;;;;;;;;;;;13.52;49.63;93583.25;4194740;28;19974;-59
2023/04/14 05:29:13;;;;;;;;;;;;;;;13.47;50.22;93588.31;4186677;28;20109;-57
2023/04/14 05:31:15;;;;;;;;;;;;;;;13.40;50.25;93567.28;4193495;28;20384;-58
2023/04/14 05:33:17;;;;;;;;;;;;;;;13.32;50.38;93556.97;4193167;28;19932;-59
2023/04/14 05:35:18;;;;;;;;;;;;;;;13.40;49.97;93555.94;4191534;28;20023;-59
2023/04/14 05:37:20;;;;;;;;;;;;;;;13.42;49.85;93565.25;4194607;28;19928;-58
2023/04/14 05:39:21;;;;;;;;;;;;;;;13.42;50.65;93554.75;4187101;28;19931;-58
2023/04/14 05:41:23;;;;;;;;;;;;;;;13.44;50.47;93554.50;4193991;28;20015;-57
2023/04/14 05:43:24;;;;;;;;;;;;;;;13.46;50.07;93537.50;4194026;28;19974;-58
2023/04/14 05:45:26;;;;;;;;;;;;;;;13.56;49.77;93537.09;4193691;28;20380;-57
2023/04/14 05:47:27;;;;;;;;;;;;;;;13.59;49.46;93531.41;4193019;28;20028;-58
2023/04/14 05:49:29;;;;;;;;;;;;;;;13.49;50.21;93525.78;4191224;28;20020;-57
2023/04/14 05:51:31;;;;;;;;;;;;;;;13.50;49.72;93548.44;4193159;28;20525;-57
2023/04/14 05:53:32;;;;;;;;;;;;;;;13.43;50.22;93543.19;4193172;28;19970;-58
2023/04/14 05:55:34;;;;;;;;;;;;;;;13.40;49.74;93540.16;4192928;28;20005;-58
2023/04/14 05:57:36;;;;;;;;;;;;;;;13.49;50.31;93542.38;4192107;28;20349;-58
2023/04/14 05:59:37;;;;;;;;;;;;;;;13.61;50.31;93534.66;4192184;28;20733;-58
2023/04/14 06:01:39;;;;;;;;;;;;;;;13.58;49.88;93544.78;4193590;28;19928;-59
2023/04/14 06:03:40;;;;;;;;;;;;;;;13.59;50.22;93527.97;4193551;28;19992;-61
2023/04/14 06:05:42;;;;;;;;;;;;;;;13.57;49.63;93538.69;4193994;28;19949;-59
2023/04/14 06:07:45;;;;;;;;;;;;;;;13.54;50.01;93523.34;4191192;28;19931;-58
2023/04/14 06:09:47;;;;;;;;;;;;;;;13.65;49.40;93521.91;4193643;28;20515;-59
2023/04/14 06:11:48;;;;;;;;;;;;;;;13.75;49.74;93514.38;4193827;28;19928;-59
2023/04/14 06:13:50;;;;;;;;;;;;;;;13.83;49.09;93518.59;4193318;28;19954;-59
2023/04/14 06:15:51;;;;;;;;;;;;;;;13.90;49.02;93498.34;4192480;28;19932;-58
2023/04/14 06:17:53;;;;;;;;;;;;;;;13.95;48.83;93508.25;4193172;28;19936;-57
2023/04/14 06:19:55;;;;;;;;;;;;;;;14.07;48.29;93496.84;4194059;28;20325;-58
2023/04/14 06:21:56;;;;;;;;;;;;;;;14.09;47.89;93494.81;4193995;28;19928;-58
2023/04/14 06:23:58;;;;;;;;;;;;;;;14.13;48.00;93497.81;4192800;28;19928;-58
2023/04/14 06:26:00;;;;;;;;;;;;;;;14.16;48.39;93486.88;4192781;28;19939;-60
2023/04/14 06:28:02;;;;;;;;;;;;;;;14.23;48.29;93487.63;4193454;28;19932;-60
2023/04/14 06:30:04;;;;;;;;;;;;;;;14.31;48.01;93476.84;4192652;28;19935;-59
2023/04/14 06:32:06;;;;;;;;;;;;;;;14.32;47.77;93462.66;4192781;28;19929;-58
2023/04/14 06:34:08;;;;;;;;;;;;;;;14.29;47.52;93457.03;4192973;28;20016;-58
2023/04/14 06:36:09;;;;;;;;;;;;;;;14.38;47.96;93455.75;4193023;28;19955;-59
2023/04/14 06:38:11;;;;;;;;;;;;;;;14.36;47.11;93447.25;4193166;28;19950;-59
2023/04/14 06:40:12;;;;;;;;;;;;;;;14.38;47.28;93466.28;4186268;28;19982;-59
2023/04/14 06:42:14;;;;;;;;;;;;;;;14.33;47.54;93440.56;4193011;28;20062;-59
2023/04/14 06:44:16;;;;;;;;;;;;;;;14.36;46.96;93444.59;4193124;28;19978;-57
2023/04/14 06:46:17;;;;;;;;;;;;;;;14.23;47.43;93437.59;4192796;28;19929;-58
2023/04/14 06:48:19;;;;;;;;;;;;;;;14.08;47.32;93421.28;4192220;28;19932;-59
2023/04/14 06:50:21;;;;;;;;;;;;;;;14.10;47.50;93413.97;4192749;28;19929;-58
2023/04/14 06:52:22;;;;;;;;;;;;;;;14.13;47.40;93401.19;4193379;28;19924;-59
2023/04/14 06:54:24;;;;;;;;;;;;;;;14.14;47.49;93417.81;4192986;28;20307;-59
2023/04/14 06:56:26;;;;;;;;;;;;;;;14.39;48.40;93427.56;4192486;28;19929;-57
2023/04/14 06:58:28;;;;;;;;;;;;;;;14.69;47.36;93404.03;4191587;28;19940;-61
2023/04/14 07:00:30;;;;;;;;;;;;;;;14.79;47.02;93408.84;4192172;28;19928;-61
2023/04/14 07:02:31;;;;;;;;;;;;;;;14.76;46.71;93391.63;4191948;28;19992;-61
2023/04/14 07:04:34;;;;;;;;;;;;;;;14.88;47.15;93402.25;4190772;28;20013;-58
2023/04/14 07:06:35;;;;;;;;;;;;;;;14.99;46.61;93401.53;4193812;28;19936;-59
2023/04/14 07:08:39;;;;;;;;;;;;;;;15.02;46.06;93385.31;4194021;28;19960;-58
2023/04/14 07:10:41;;;;;;;;;;;;;;;14.99;46.41;93398.91;4191477;28;20225;-60
2023/04/14 07:12:42;;;;;;;;;;;;;;;15.14;46.49;93415.22;4189348;28;20032;-60
2023/04/14 07:14:50;;;;;;;;;;;;;;;15.43;46.20;93406.78;4191159;28;20014;-59
2023/04/14 07:16:52;;;;;;;;;;;;;;;15.67;45.33;93411.16;4193413;28;19924;-59
2023/04/14 07:18:54;;;;;;;;;;;;;;;15.85;45.04;93405.09;4192052;28;19936;-63
2023/04/14 07:20:56;;;;;;;;;;;;;;;15.67;45.35;93383.97;4192607;28;19968;-59
2023/04/14 07:22:57;;;;;;;;;;;;;;;15.52;45.71;93387.00;4190240;28;19933;-59
2023/04/14 07:24:59;;;;;;;;;;;;;;;15.64;45.66;93389.69;4192103;28;19928;-59
2023/04/14 07:27:00;;;;;;;;;;;;;;;15.95;44.92;93396.63;4190382;28;19990;-59
2023/04/14 07:29:02;;;;;;;;;;;;;;;16.02;44.54;93392.06;4193201;28;19924;-61
2023/04/14 07:31:08;;;;;;;;;;;;;;;16.05;44.37;93391.63;4192688;28;20311;-61
2023/04/14 07:33:09;;;;;;;;;;;;;;;15.93;44.16;93396.84;4192680;28;19975;-59
2023/04/14 07:35:11;;;;;;;;;;;;;;;16.03;43.99;93385.75;4192755;28;19925;-59
2023/04/14 07:37:13;;;;;;;;;;;;;;;15.66;43.96;93387.63;4193391;28;19930;-59
2023/04/14 07:39:14;;;;;;;;;;;;;;;15.59;44.33;93382.44;4188834;28;19925;-59
2023/04/14 07:41:16;;;;;;;;;;;;;;;15.51;44.49;93391.47;4185416;28;19925;-59
2023/04/14 07:43:18;;;;;;;;;;;;;;;15.66;44.21;93384.97;4191051;28;20499;-58
2023/04/14 07:45:19;;;;;;;;;;;;;;;15.54;44.28;93361.19;4192641;28;20020;-61
2023/04/14 07:47:21;;;;;;;;;;;;;;;15.81;44.33;93392.53;4192485;28;19974;-60
2023/04/14 07:49:23;;;;;;;;;;;;;;;16.13;43.76;93382.56;4193066;28;20023;-59
2023/04/14 07:51:24;;;;;;;;;;;;;;;16.47;43.34;93369.66;4192942;28;19933;-60
2023/04/14 07:53:26;;;;;;;;;;;;;;;16.63;42.29;93355.78;4192955;28;19994;-62
2023/04/14 07:55:27;;;;;;;;;;;;;;;16.57;42.34;93368.06;4192807;28;19925;-58
2023/04/14 07:57:29;;;;;;;;;;;;;;;16.86;42.77;93359.50;4192990;28;19924;-60
2023/04/14 07:59:30;;;;;;;;;;;;;;;16.88;41.51;93342.34;4192569;28;19925;-62
2023/04/14 08:01:32;;;;;;;;;;;;;;;16.88;41.78;93346.84;4191893;28;20111;-61
2023/04/14 08:03:36;;;;;;;;;;;;;;;16.86;41.69;93344.41;4195073;28;19939;-61
2023/04/14 08:05:38;;;;;;;;;;;;;;;16.81;41.63;93356.75;4196574;28;19971;-63
2023/04/14 08:07:40;;;;;;;;;;;;;;;16.93;41.78;93349.63;4195599;28;20015;-61
2023/04/14 08:09:42;;;;;;;;;;;;;;;16.97;40.97;93353.38;4184332;28;19970;-61
2023/04/14 08:11:43;;;;;;;;;;;;;;;16.77;41.08;93351.88;4196374;28;20019;-59
2023/04/14 08:13:45;;;;;;;;;;;;;;;16.82;41.28;93367.09;4196329;28;20450;-58
2023/04/14 08:15:47;;;;;;;;;;;;;;;16.79;41.04;93355.09;4192148;28;19924;-58
2023/04/14 08:17:48;;;;;;;;;;;;;;;16.88;41.14;93344.19;4194218;28;19925;-60
2023/04/14 08:19:50;;;;;;;;;;;;;;;16.92;40.92;93340.06;4187018;28;19928;-58
2023/04/14 08:21:51;;;;;;;;;;;;;;;16.61;41.41;93359.69;4196312;28;19932;-60
2023/04/14 08:23:53;;;;;;;;;;;;;;;16.40;41.92;93335.41;4195794;28;19924;-60
2023/04/14 08:25:54;;;;;;;;;;;;;;;16.53;40.26;93360.81;4195721;28;19986;-59
2023/04/14 08:27:56;;;;;;;;;;;;;;;17.02;39.61;93342.13;4195941;28;19928;-57
2023/04/14 08:29:57;;;;;;;;;;;;;;;17.23;39.80;93348.63;4195240;28;20364;-58
2023/04/14 08:31:59;;;;;;;;;;;;;;;17.27;39.85;93334.72;4192218;28;19928;-59
2023/04/14 08:34:01;;;;;;;;;;;;;;;17.43;38.63;93338.47;4195498;28;19958;-59
2023/04/14 08:36:02;;;;;;;;;;;;;;;17.56;39.50;93358.59;4195789;28;19932;-59
2023/04/14 08:38:04;;;;;;;;;;;;;;;17.63;37.80;93363.75;4194659;28;19951;-59
2023/04/14 08:40:07;;;;;;;;;;;;;;;18.01;37.18;93348.09;4195118;28;20073;-59
2023/04/14 08:42:09;;;;;;;;;;;;;;;18.36;36.24;93352.38;4186126;28;19975;-58
2023/04/14 08:44:11;;;;;;;;;;;;;;;18.62;35.04;93350.94;4192679;28;19964;-57
2023/04/14 08:46:13;;;;;;;;;;;;;;;18.98;35.05;93372.75;4193103;28;20507;-57
2023/04/14 08:48:15;;;;;;;;;;;;;;;19.21;34.03;93366.44;4194554;28;19935;-60
2023/04/14 08:50:17;;;;;;;;;;;;;;;19.44;34.11;93392.00;4194718;28;19928;-59
2023/04/14 08:52:20;;;;;;;;;;;;;;;19.47;32.60;93364.13;4193961;28;19924;-58
2023/04/14 08:54:21;;;;;;;;;;;;;;;19.65;30.81;93379.75;4195337;28;20042;-62
2023/04/14 08:56:23;;;;;;;;;;;;;;;19.86;31.70;93371.25;4195649;28;19928;-61
2023/04/14 08:58:25;;;;;;;;;;;;;;;20.13;31.62;93390.69;4195160;28;19968;-62
2023/04/14 09:00:27;;;;;;;;;;;;;;;20.22;29.79;93381.22;4195181;28;19924;-61
2023/04/14 09:02:28;;;;;;;;;;;;;;;20.48;29.66;93392.09;4194442;28;19925;-62
2023/04/14 09:04:30;;;;;;;;;;;;;;;20.76;29.35;93383.06;4192572;28;20349;-62
2023/04/14 09:06:32;;;;;;;;;;;;;;;20.79;28.79;93387.88;4195602;28;19971;-60
2023/04/14 09:08:34;;;;;;;;;;;;;;;20.94;28.29;93368.56;4195493;28;19956;-59
2023/04/14 09:10:36;;;;;;;;;;;;;;;20.82;28.37;93395.34;4193845;28;20395;-60
2023/04/14 09:12:39;;;;;;;;;;;;;;;20.82;28.43;93358.09;4193266;28;19928;-60
2023/04/14 09:14:45;;;;;;;;;;;;;;;21.04;28.55;93383.81;4193664;28;20026;-59
2023/04/14 09:16:47;;;;;;;;;;;;;;;21.26;28.04;93363.16;4194944;28;19931;-62
2023/04/14 09:18:49;;;;;;;;;;;;;;;21.43;27.81;93354.25;4194429;28;19924;-62
2023/04/14 09:20:51;;;;;;;;;;;;;;;21.52;27.68;93347.34;4193325;28;20051;-60
2023/04/14 09:23:13;;;;;;;;;;;;;;;21.36;27.58;93343.78;4189379;28;20020;-60
2023/04/14 09:25:14;;;;;;;;;;;;;;;21.37;28.01;93347.25;4189130;28;20117;-59
2023/04/14 09:27:16;;;;;;;;;;;;;;;21.42;28.21;93349.94;4192769;28;19939;-59
2023/04/14 09:29:17;;;;;;;;;;;;;;;21.30;28.22;93391.97;4194034;28;20023;-60
2023/04/14 09:31:20;;;;;;;;;;;;;;;20.85;28.93;93338.16;4191956;28;19924;-59
2023/04/14 09:33:25;;;;;;;;;;;;;;;20.83;29.34;93343.72;4192878;28;19928;-60
2023/04/14 09:35:41;;;;;;;;;;;;;;;20.96;29.17;93360.31;4193776;28;20237;-60
2023/04/14 09:37:43;;;;;;;;;;;;;;;21.02;29.18;93348.66;4191310;28;19952;-61
2023/04/14 09:39:49;;;;;;;;;;;;;;;21.21;29.36;93351.69;4192520;28;19924;-61
2023/04/14 09:41:51;;;;;;;;;;;;;;;21.13;29.45;93313.03;4191395;28;19925;-59
2023/04/14 09:43:53;;;;;;;;;;;;;;;21.07;29.31;93332.69;4189246;28;20085;-61
2023/04/14 09:45:55;;;;;;;;;;;;;;;21.24;29.23;93329.88;4192083;28;19931;-58
2023/04/14 09:48:04;;;;;;;;;;;;;;;21.42;29.77;93360.59;4190342;28;19924;-59
2023/04/14 09:50:06;;;;;;;;;;;;;;;21.32;29.15;93333.91;4193781;28;20031;-60
2023/04/14 09:52:08;;;;;;;;;;;;;;;21.42;28.99;93331.31;4192571;28;20015;-59
2023/04/14 10:09:01;;;;;;;;;;;;;;;20.78;30.38;93391.59;4193078;28;19943;-61
2023/04/14 10:11:12;;;;;;;;;;;;;;;20.85;30.55;93408.16;4193650;28;20007;-60
2023/04/14 10:13:14;;;;;;;;;;;;;;;20.97;30.21;93405.31;4193428;28;20321;-60
2023/04/14 10:15:16;;;;;;;;;;;;;;;21.24;30.38;93429.19;4192937;28;19931;-60
2023/04/14 10:17:18;;;;;;;;;;;;;;;21.30;30.37;93439.91;4192639;28;20524;-60
2023/04/14 10:19:20;;;;;;;;;;;;;;;21.02;30.83;93461.25;4193978;28;19929;-60
2023/04/14 10:21:22;;;;;;;;;;;;;;;20.40;31.56;93435.91;4194176;28;19931;-61
2023/04/14 10:26:06;;;;;;;;;;;;;;;19.99;32.92;93491.28;4182346;28;20007;-61
2023/04/14 10:28:08;;;;;;;;;;;;;;;20.18;32.97;93496.31;4192738;28;19924;-62
2023/04/14 10:30:10;;;;;;;;;;;;;;;20.09;33.79;93506.56;4192907;28;20031;-65
2023/04/14 10:32:12;;;;;;;;;;;;;;;20.10;34.08;93539.28;4192961;28;19978;-79
2023/04/14 10:34:17;;;;;;;;;;;;;;;19.45;36.68;93544.16;4193657;28;19924;-77
2023/04/14 10:36:22;;;;;;;;;;;;;;;19.27;36.87;93520.50;4192453;28;20563;-73
2023/04/14 10:38:37;;;;;;;;;;;;;;;18.99;37.99;93572.59;4193869;28;19951;-73
2023/04/14 10:40:49;;;;;;;;;;;;;;;18.52;40.19;93605.41;4193430;28;19952;-73
2023/04/14 10:42:52;;;;;;;;;;;;;;;17.91;43.77;93634.03;4174081;28;19929;-74
2023/04/14 10:45:03;;;;;;;;;;;;;;;17.76;45.68;93657.47;4188216;28;19929;-73
2023/04/14 10:47:06;;;;;;;;;;;;;;;17.52;47.86;93683.94;4193053;28;19925;-62
2023/04/14 10:49:10;;;;;;;;;;;;;;;17.30;48.19;93709.31;4193359;28;19947;-68
2023/04/14 10:51:12;;;;;;;;;;;;;;;16.74;49.53;93712.00;4192433;28;19932;-68
2023/04/14 10:53:13;;;;;;;;;;;;;;;16.52;49.17;93727.50;4192560;28;20383;-64
2023/04/14 10:55:15;;;;;;;;;;;;;;;16.28;49.10;93747.66;4192209;28;20419;-81
2023/04/14 10:57:18;;;;;;;;;;;;;;;15.74;48.02;93763.13;4193709;28;20270;-68